Time;durP1;ratioP1;P1;durP2;ratioP2;P2;SDS_P1;SDS_P2;PMS_P1;PMS_P2;Temp;Humidity;BMP_temperature;BMP_pressure;BME280_temperature;BME280_humidity;BME280_pressure;Samples;Min_cycle;Max_cycle;Signal;HPM_P1;HPM_P2
2023/12/10 00:00:11;;;;;;;0.00;0.00;;;;;;;4.42;100.00;94959.16;1019319;29;20063;-78
2023/12/10 00:00:41;;;;;;;0.00;0.00;;;;;;;4.45;100.00;94969.06;1011149;29;20120;-77
2023/12/10 00:01:14;;;;;;;0.05;0.05;;;;;;;4.34;100.00;94947.38;1011446;29;20307;-77
2023/12/10 00:01:44;;;;;;;0.15;0.10;;;;;;;4.40;100.00;94956.03;1011546;29;20023;-78
2023/12/10 00:02:15;;;;;;;0.00;0.00;;;;;;;4.38;100.00;94958.06;1011801;29;20561;-77
2023/12/10 00:02:45;;;;;;;0.20;0.20;;;;;;;4.45;100.00;94969.84;1019260;29;20527;-77
2023/12/10 00:03:16;;;;;;;0.00;0.00;;;;;;;4.41;100.00;94968.75;1019209;29;20066;-77
2023/12/10 00:03:46;;;;;;;0.00;0.00;;;;;;;4.43;100.00;94964.13;1019357;28;20032;-77
2023/12/10 00:04:17;;;;;;;0.00;0.00;;;;;;;4.40;100.00;94967.19;1023261;29;20070;-78
2023/12/10 00:04:47;;;;;;;0.10;0.10;;;;;;;4.51;100.00;94962.13;1019404;29;20035;-77
2023/12/10 00:05:18;;;;;;;0.40;0.40;;;;;;;4.45;100.00;94954.25;1022974;29;20035;-77
2023/12/10 00:05:48;;;;;;;0.30;0.15;;;;;;;4.45;100.00;94962.06;1023060;28;20046;-77
2023/12/10 00:06:19;;;;;;;0.00;0.00;;;;;;;4.47;100.00;94962.59;1027244;28;20030;-78
2023/12/10 00:06:49;;;;;;;0.35;0.35;;;;;;;4.45;100.00;94959.44;1023250;29;20031;-78
2023/12/10 00:07:20;;;;;;;0.00;0.00;;;;;;;4.41;100.00;94958.38;1023246;29;20049;-78
2023/12/10 00:07:50;;;;;;;0.00;0.00;;;;;;;4.51;100.00;94967.31;1019071;29;20032;-77
2023/12/10 00:08:21;;;;;;;0.10;0.10;;;;;;;4.43;100.00;94951.13;1019467;29;20032;-77
2023/12/10 00:08:51;;;;;;;0.00;0.00;;;;;;;4.41;100.00;94948.00;1019216;29;20065;-78
2023/12/10 00:09:22;;;;;;;0.00;0.00;;;;;;;4.51;100.00;94967.31;1026928;28;20470;-78
2023/12/10 00:09:53;;;;;;;0.00;0.00;;;;;;;4.53;100.00;94965.25;1023277;28;20518;-78
2023/12/10 00:10:23;;;;;;;0.45;0.45;;;;;;;4.53;100.00;94963.47;1019230;29;20028;-78
2023/12/10 00:10:53;;;;;;;0.00;0.00;;;;;;;4.61;100.00;94970.81;1019364;29;20032;-78
2023/12/10 00:11:24;;;;;;;0.00;0.00;;;;;;;4.68;100.00;94975.81;1019524;28;20028;-78
2023/12/10 00:11:54;;;;;;;0.00;0.00;;;;;;;4.69;100.00;94978.19;1027238;28;20015;-78
2023/12/10 00:12:25;;;;;;;0.00;0.00;;;;;;;4.63;100.00;94965.38;1026874;28;20054;-78
2023/12/10 00:12:55;;;;;;;0.00;0.00;;;;;;;4.60;100.00;94976.25;1019284;29;20066;-78
2023/12/10 00:13:26;;;;;;;0.30;0.30;;;;;;;4.59;100.00;94972.06;1011348;29;20029;-78
2023/12/10 00:13:57;;;;;;;0.00;0.00;;;;;;;4.60;100.00;94990.03;1019287;29;20035;-78
2023/12/10 00:14:27;;;;;;;0.00;0.00;;;;;;;4.61;100.00;94973.41;1018984;29;20023;-78
2023/12/10 00:14:58;;;;;;;0.00;0.00;;;;;;;4.63;100.00;94980.97;1019113;29;20031;-77
2023/12/10 00:15:28;;;;;;;0.55;0.32;;;;;;;4.61;100.00;94977.81;1011603;29;20052;-77
2023/12/10 00:15:59;;;;;;;0.00;0.00;;;;;;;4.67;100.00;94984.66;1011190;29;20032;-77
2023/12/10 00:16:29;;;;;;;0.10;0.10;;;;;;;4.67;100.00;94993.22;1011555;29;20040;-77
2023/12/10 00:17:00;;;;;;;0.00;0.00;;;;;;;4.65;100.00;94984.09;1011408;29;20514;-78
2023/12/10 00:17:30;;;;;;;0.00;0.00;;;;;;;4.69;100.00;94995.56;1008291;29;20462;-78
2023/12/10 00:18:01;;;;;;;0.10;0.10;;;;;;;4.69;100.00;95000.75;1011867;29;20068;-78
2023/12/10 00:18:31;;;;;;;0.00;0.00;;;;;;;4.64;100.00;94998.13;1023289;28;20055;-77
2023/12/10 00:19:02;;;;;;;0.15;0.15;;;;;;;4.66;100.00;95001.25;1019518;29;20067;-78
2023/12/10 00:19:33;;;;;;;0.00;0.00;;;;;;;4.67;100.00;95008.03;1019385;29;20594;-78
2023/12/10 00:20:04;;;;;;;0.00;0.00;;;;;;;4.66;100.00;94998.66;1018984;29;20168;-77
2023/12/10 00:20:34;;;;;;;0.00;0.00;;;;;;;4.68;100.00;95007.00;1019570;29;20815;-78
2023/12/10 00:21:05;;;;;;;0.00;0.00;;;;;;;4.62;100.00;95000.94;1017486;29;20447;-78
2023/12/10 00:21:37;;;;;;;0.75;0.15;;;;;;;4.65;100.00;94999.69;1023072;29;20042;-78
2023/12/10 00:22:07;;;;;;;0.00;0.00;;;;;;;4.69;100.00;95009.38;1019265;29;20032;-78
2023/12/10 00:22:38;;;;;;;0.10;0.10;;;;;;;4.61;100.00;94998.59;1018225;29;20416;-78
2023/12/10 00:23:11;;;;;;;0.00;0.00;;;;;;;4.66;100.00;95014.25;1019055;29;20114;-78
2023/12/10 00:23:42;;;;;;;0.00;0.00;;;;;;;4.53;100.00;95006.81;1019469;29;20539;-78
2023/12/10 00:24:12;;;;;;;0.00;0.00;;;;;;;4.49;100.00;95001.31;1018482;29;20283;-78
2023/12/10 00:24:43;;;;;;;0.05;0.05;;;;;;;4.67;100.00;95013.22;1007576;29;20410;-77
2023/12/10 00:25:13;;;;;;;0.00;0.00;;;;;;;4.61;100.00;95014.97;1015194;29;20032;-78
2023/12/10 00:25:45;;;;;;;0.00;0.00;;;;;;;4.61;100.00;95019.38;1011202;29;20044;-77
2023/12/10 00:26:16;;;;;;;0.00;0.00;;;;;;;4.67;100.00;95021.81;1021970;29;20067;-78
2023/12/10 00:26:46;;;;;;;0.20;0.20;;;;;;;4.63;100.00;95027.75;1027184;28;20281;-78
2023/12/10 00:27:17;;;;;;;0.00;0.00;;;;;;;4.69;100.00;95031.94;1026263;29;20059;-78
2023/12/10 00:27:47;;;;;;;0.65;0.25;;;;;;;4.67;100.00;95034.00;1023905;29;20419;-78
2023/12/10 00:28:18;;;;;;;0.00;0.00;;;;;;;4.70;100.00;95030.94;1020823;29;20051;-78
2023/12/10 00:28:48;;;;;;;0.00;0.00;;;;;;;4.66;100.00;95035.03;1023213;28;20101;-78
2023/12/10 00:29:19;;;;;;;0.00;0.00;;;;;;;4.60;100.00;95023.81;1023016;29;20030;-78
2023/12/10 00:29:49;;;;;;;0.10;0.10;;;;;;;4.58;100.00;95025.84;1023193;28;20078;-78
2023/12/10 00:30:20;;;;;;;0.00;0.00;;;;;;;4.61;100.00;95022.00;1023185;28;20142;-78
2023/12/10 00:30:50;;;;;;;0.00;0.00;;;;;;;4.68;100.00;95041.56;1018945;29;20032;-77
2023/12/10 00:31:21;;;;;;;0.00;0.00;;;;;;;4.69;100.00;95043.16;1010942;29;20040;-77
2023/12/10 00:31:52;;;;;;;0.20;0.20;;;;;;;4.64;100.00;95037.88;1011341;29;20037;-78
2023/12/10 00:32:22;;;;;;;0.00;0.00;;;;;;;4.67;100.00;95031.41;1006732;29;20029;-77
2023/12/10 00:32:54;;;;;;;0.00;0.00;;;;;;;4.67;100.00;95045.19;1016649;29;20107;-78
2023/12/10 00:33:24;;;;;;;0.00;0.00;;;;;;;4.67;100.00;95042.59;1019038;29;20040;-77
2023/12/10 00:33:55;;;;;;;0.10;0.10;;;;;;;4.57;100.00;95028.69;1015423;29;20854;-77
2023/12/10 00:34:25;;;;;;;0.55;0.25;;;;;;;4.69;100.00;95043.16;1015229;29;20095;-77
2023/12/10 00:34:56;;;;;;;0.00;0.00;;;;;;;4.72;100.00;95039.25;1022941;29;20035;-78
2023/12/10 00:35:26;;;;;;;0.45;0.05;;;;;;;4.69;100.00;95044.94;1024733;28;20473;-78
2023/12/10 00:35:57;;;;;;;0.43;0.43;;;;;;;4.67;100.00;95044.41;1027742;28;20105;-78
2023/12/10 00:36:27;;;;;;;0.00;0.00;;;;;;;4.63;100.00;95032.94;1024289;28;20228;-78
2023/12/10 00:36:58;;;;;;;0.30;0.30;;;;;;;4.65;100.00;95046.44;1015316;29;20036;-78
2023/12/10 00:37:28;;;;;;;0.00;0.00;;;;;;;4.66;100.00;95048.00;1011237;29;20028;-77
2023/12/10 00:37:59;;;;;;;0.13;0.13;;;;;;;4.58;100.00;95038.06;1016298;29;20040;-78
2023/12/10 00:38:30;;;;;;;0.20;0.20;;;;;;;4.65;100.00;95052.44;1011328;29;20801;-77
2023/12/10 00:39:01;;;;;;;0.00;0.00;;;;;;;4.70;100.00;95051.72;1011548;29;20036;-78
2023/12/10 00:39:32;;;;;;;2.45;0.32;;;;;;;4.60;100.00;95049.00;1015042;29;20288;-78
2023/12/10 00:40:05;;;;;;;0.13;0.03;;;;;;;4.60;100.00;95046.41;1019340;29;20759;-78
2023/12/10 00:40:36;;;;;;;0.10;0.10;;;;;;;4.64;100.00;95058.66;1018963;29;20496;-78
2023/12/10 00:41:08;;;;;;;0.13;0.13;;;;;;;4.61;100.00;95061.75;1011444;29;20269;-78
2023/12/10 00:41:38;;;;;;;0.03;0.03;;;;;;;4.61;100.00;95058.38;1015707;29;20404;-78
2023/12/10 00:42:09;;;;;;;0.08;0.08;;;;;;;4.62;100.00;95052.13;1018969;29;20264;-78
2023/12/10 00:42:40;;;;;;;0.10;0.10;;;;;;;4.68;100.00;95058.97;1015401;29;20071;-77
2023/12/10 00:43:12;;;;;;;0.30;0.30;;;;;;;4.67;100.00;95060.00;1023027;28;20132;-77
2023/12/10 00:43:43;;;;;;;0.32;0.32;;;;;;;4.66;100.00;95061.00;1023341;29;20270;-78
2023/12/10 00:44:13;;;;;;;0.00;0.00;;;;;;;4.68;100.00;95053.75;1023013;29;20678;-78
2023/12/10 00:44:44;;;;;;;0.15;0.15;;;;;;;4.59;100.00;95047.41;1022801;29;20046;-78
2023/12/10 00:45:15;;;;;;;0.00;0.00;;;;;;;4.60;100.00;95054.19;1015319;29;20028;-79
2023/12/10 00:45:45;;;;;;;0.22;0.22;;;;;;;4.53;100.00;95044.00;1015038;29;20507;-78
2023/12/10 00:46:16;;;;;;;0.10;0.08;;;;;;;4.62;100.00;95057.31;1011147;29;20036;-78
2023/12/10 00:46:46;;;;;;;0.17;0.17;;;;;;;4.62;100.00;95054.72;1015201;29;20028;-78
2023/12/10 00:47:17;;;;;;;0.20;0.20;;;;;;;4.51;100.00;95047.84;1022938;29;20027;-79
2023/12/10 00:47:48;;;;;;;0.00;0.00;;;;;;;4.45;100.00;95042.56;1027611;28;20073;-78
2023/12/10 00:48:18;;;;;;;0.00;0.00;;;;;;;4.67;100.00;95067.78;1030901;28;20277;-78
2023/12/10 00:48:49;;;;;;;0.00;0.00;;;;;;;4.59;100.00;95063.78;1030986;28;20037;-78
2023/12/10 00:49:19;;;;;;;0.00;0.00;;;;;;;4.64;100.00;95081.25;1027046;28;20090;-78
2023/12/10 00:49:50;;;;;;;0.00;0.00;;;;;;;4.65;100.00;95069.84;1022811;28;20047;-78
2023/12/10 00:50:20;;;;;;;0.00;0.00;;;;;;;4.66;100.00;95067.00;1018895;29;20431;-78
2023/12/10 00:50:51;;;;;;;1.55;0.20;;;;;;;4.62;100.00;95068.50;1015209;29;20032;-77
2023/12/10 00:51:22;;;;;;;0.10;0.10;;;;;;;4.65;100.00;95069.84;1011107;29;20382;-77
2023/12/10 00:51:52;;;;;;;0.00;0.00;;;;;;;4.68;100.00;95077.16;1015189;29;20076;-77
2023/12/10 00:52:23;;;;;;;0.00;0.00;;;;;;;4.66;100.00;95074.81;1018303;29;20334;-77
2023/12/10 00:52:53;;;;;;;0.10;0.10;;;;;;;4.62;100.00;95072.91;1019135;29;20027;-77
2023/12/10 00:53:24;;;;;;;0.32;0.32;;;;;;;4.66;100.00;95084.38;1021096;28;20032;-78
2023/12/10 00:53:54;;;;;;;0.00;0.00;;;;;;;4.58;100.00;95077.03;1022793;29;20471;-77
2023/12/10 00:54:25;;;;;;;0.03;0.03;;;;;;;4.64;100.00;95091.66;1022780;29;20462;-77
2023/12/10 00:54:55;;;;;;;0.10;0.10;;;;;;;4.62;100.00;95088.50;1022924;28;20484;-77
2023/12/10 00:55:26;;;;;;;0.00;0.00;;;;;;;4.55;100.00;95098.28;1022729;28;20023;-77
2023/12/10 00:55:56;;;;;;;0.00;0.00;;;;;;;4.60;100.00;95106.94;1022887;29;20312;-77
2023/12/10 00:56:27;;;;;;;0.10;0.10;;;;;;;4.63;100.00;95105.69;1014991;29;20040;-77
2023/12/10 00:56:57;;;;;;;0.32;0.30;;;;;;;4.59;100.00;95099.38;1014770;29;20047;-77
2023/12/10 00:57:28;;;;;;;0.00;0.00;;;;;;;4.64;100.00;95091.66;1015141;29;20027;-77
2023/12/10 00:57:58;;;;;;;0.00;0.00;;;;;;;4.63;100.00;95095.28;1019077;29;20024;-78
2023/12/10 00:58:29;;;;;;;0.00;0.00;;;;;;;4.58;100.00;95090.81;1024795;28;20066;-78
2023/12/10 00:58:59;;;;;;;0.10;0.10;;;;;;;4.59;100.00;95105.34;1025299;28;20023;-77
2023/12/10 00:59:30;;;;;;;0.00;0.00;;;;;;;4.48;100.00;95104.44;1026532;28;20050;-77
2023/12/10 01:00:00;;;;;;;0.40;0.40;;;;;;;4.46;100.00;95095.31;1026758;28;20058;-76
2023/12/10 01:00:31;;;;;;;0.00;0.00;;;;;;;4.48;100.00;95090.66;1022852;29;20035;-76
2023/12/10 01:01:01;;;;;;;0.22;0.22;;;;;;;4.48;100.00;95099.25;1026711;28;20031;-77
2023/12/10 01:01:32;;;;;;;0.10;0.10;;;;;;;4.55;100.00;95103.47;1027127;28;20087;-76
2023/12/10 01:02:02;;;;;;;0.10;0.10;;;;;;;4.63;100.00;95103.09;1026667;28;20026;-76
2023/12/10 01:02:33;;;;;;;0.00;0.00;;;;;;;4.62;100.00;95094.47;1026082;28;20022;-76
2023/12/10 01:03:06;;;;;;;0.28;0.22;;;;;;;4.58;100.00;95087.41;1022618;28;20487;-77
2023/12/10 01:03:38;;;;;;;1.13;0.30;;;;;;;4.64;100.00;95092.44;1018102;29;20090;-76
2023/12/10 01:04:08;;;;;;;0.00;0.00;;;;;;;4.57;100.00;95085.84;1018987;29;20366;-76
2023/12/10 01:04:39;;;;;;;0.03;0.03;;;;;;;4.72;100.00;95105.00;1015498;29;20287;-75
2023/12/10 01:05:09;;;;;;;0.00;0.00;;;;;;;4.77;100.00;95112.09;1011285;29;20076;-76
2023/12/10 01:05:40;;;;;;;0.75;0.20;;;;;;;4.81;100.00;95096.81;1012351;29;20409;-77
2023/12/10 01:06:10;;;;;;;0.00;0.00;;;;;;;4.77;100.00;95100.91;1018822;29;20020;-77
2023/12/10 01:06:41;;;;;;;2.83;1.27;;;;;;;4.80;100.00;95096.03;1014912;29;20024;-77
2023/12/10 01:07:11;;;;;;;0.00;0.00;;;;;;;4.80;100.00;95098.63;1019173;28;20027;-78
2023/12/10 01:07:42;;;;;;;0.00;0.00;;;;;;;4.82;100.00;95106.16;1026512;28;20034;-76
2023/12/10 01:08:12;;;;;;;0.45;0.32;;;;;;;4.78;100.00;95105.84;1022933;29;20019;-77
2023/12/10 01:08:43;;;;;;;0.00;0.00;;;;;;;4.83;100.00;95111.13;1022798;29;20042;-77
2023/12/10 01:09:17;;;;;;;0.10;0.10;;;;;;;4.73;100.00;95098.78;1022758;28;20031;-77
2023/12/10 01:09:47;;;;;;;0.10;0.05;;;;;;;4.72;100.00;95107.59;1018933;29;20268;-77
2023/12/10 01:10:19;;;;;;;0.00;0.00;;;;;;;4.80;100.00;95127.22;1010892;29;20368;-77
2023/12/10 01:10:49;;;;;;;0.00;0.00;;;;;;;4.71;100.00;95102.66;1008734;29;20071;-77
2023/12/10 01:11:20;;;;;;;0.00;0.00;;;;;;;4.80;100.00;95114.22;1019039;29;20682;-77
2023/12/10 01:11:50;;;;;;;0.00;0.00;;;;;;;4.78;100.00;95108.47;1014833;29;20088;-78
2023/12/10 01:12:21;;;;;;;0.10;0.10;;;;;;;4.80;100.00;95109.03;1010736;29;20029;-76
2023/12/10 01:12:52;;;;;;;0.00;0.00;;;;;;;4.75;100.00;95108.94;1014934;29;20209;-76
2023/12/10 01:13:24;;;;;;;0.20;0.20;;;;;;;4.68;100.00;95116.91;1010862;29;20032;-78
2023/12/10 01:13:54;;;;;;;0.00;0.00;;;;;;;4.71;100.00;95110.44;1015005;29;20271;-77
2023/12/10 01:14:25;;;;;;;0.43;0.43;;;;;;;4.71;100.00;95124.22;1013876;29;20787;-77
2023/12/10 01:14:55;;;;;;;0.00;0.00;;;;;;;4.73;100.00;95116.22;1010944;29;20040;-77
2023/12/10 01:15:31;;;;;;;0.17;0.17;;;;;;;4.63;100.00;95116.06;1015129;29;20091;-77
2023/12/10 01:16:04;;;;;;;0.00;0.00;;;;;;;4.69;100.00;95125.50;1014814;29;20032;-77
2023/12/10 01:16:34;;;;;;;0.10;0.10;;;;;;;4.72;100.00;95131.00;1016241;29;20280;-78
2023/12/10 01:17:05;;;;;;;0.40;0.40;;;;;;;4.69;100.00;95134.09;1021714;28;20255;-78
2023/12/10 01:17:35;;;;;;;0.32;0.32;;;;;;;4.71;100.00;95131.25;1022893;28;20427;-77
2023/12/10 01:18:06;;;;;;;0.03;0.03;;;;;;;4.70;100.00;95116.69;1023761;28;20031;-77
2023/12/10 01:18:37;;;;;;;0.00;0.00;;;;;;;4.62;100.00;95111.88;1023067;29;20137;-77
2023/12/10 01:19:07;;;;;;;0.03;0.03;;;;;;;4.67;100.00;95117.16;1023357;29;20500;-78
2023/12/10 01:19:39;;;;;;;0.00;0.00;;;;;;;4.57;100.00;95114.44;1018890;29;20271;-77
2023/12/10 01:20:09;;;;;;;0.20;0.20;;;;;;;4.71;100.00;95136.44;1022688;29;20495;-77
2023/12/10 01:20:40;;;;;;;0.00;0.00;;;;;;;4.68;100.00;95147.31;1022868;28;20270;-77
2023/12/10 01:21:11;;;;;;;0.00;0.00;;;;;;;4.66;100.00;95134.56;1026814;28;20034;-77
2023/12/10 01:21:41;;;;;;;0.00;0.00;;;;;;;4.74;100.00;95143.75;1026586;28;20845;-77
2023/12/10 01:22:12;;;;;;;0.00;0.00;;;;;;;4.69;100.00;95148.88;1026407;28;20026;-78
2023/12/10 01:22:42;;;;;;;0.17;0.17;;;;;;;4.56;100.00;95125.84;1022527;29;20463;-78
2023/12/10 01:23:14;;;;;;;0.00;0.00;;;;;;;4.65;100.00;95151.16;1019081;29;20080;-79
2023/12/10 01:23:45;;;;;;;0.70;0.70;;;;;;;4.67;100.00;95148.34;1018892;29;20032;-78
2023/12/10 01:24:18;;;;;;;0.00;0.00;;;;;;;4.73;100.00;95158.56;1022601;28;20794;-77
2023/12/10 01:24:49;;;;;;;0.00;0.00;;;;;;;4.75;100.00;95153.13;1023068;29;20146;-77
2023/12/10 01:25:19;;;;;;;0.00;0.00;;;;;;;4.71;100.00;95159.81;1022875;29;20415;-78
2023/12/10 01:25:50;;;;;;;0.00;0.00;;;;;;;4.67;100.00;95143.16;1015202;29;20036;-78
2023/12/10 01:26:21;;;;;;;0.00;0.00;;;;;;;4.66;100.00;95150.16;1018699;29;20099;-78
2023/12/10 01:26:51;;;;;;;0.00;0.00;;;;;;;4.75;100.00;95160.91;1010980;29;20033;-77
2023/12/10 01:27:22;;;;;;;0.00;0.00;;;;;;;4.75;100.00;95166.13;1019119;28;20268;-78
2023/12/10 01:27:53;;;;;;;0.00;0.00;;;;;;;4.70;100.00;95158.25;1015052;29;20034;-78
2023/12/10 01:28:23;;;;;;;0.00;0.00;;;;;;;4.71;100.00;95170.22;1022786;29;20125;-79
2023/12/10 01:28:54;;;;;;;0.00;0.00;;;;;;;4.70;100.00;95159.03;1019114;29;20307;-78
2023/12/10 01:29:25;;;;;;;0.00;0.00;;;;;;;4.76;100.00;95172.09;1019587;29;20396;-79
2023/12/10 01:29:56;;;;;;;0.17;0.17;;;;;;;4.68;100.00;95166.28;1018936;29;20570;-78
2023/12/10 01:30:26;;;;;;;0.35;0.22;;;;;;;4.65;100.00;95161.56;1014793;29;20268;-78
2023/12/10 01:30:57;;;;;;;0.00;0.00;;;;;;;4.67;100.00;95174.34;1007321;29;20489;-78
2023/12/10 01:31:34;;;;;;;0.00;0.00;;;;;;;4.70;100.00;95179.06;1010851;29;20028;-78
2023/12/10 01:32:04;;;;;;;0.55;0.30;;;;;;;4.64;100.00;95174.81;1015167;29;20028;-77
2023/12/10 01:32:35;;;;;;;0.00;0.00;;;;;;;4.70;100.00;95187.63;1018128;29;20362;-78
2023/12/10 01:33:05;;;;;;;0.47;0.47;;;;;;;4.68;100.00;95186.28;1014863;29;20515;-78
2023/12/10 01:33:36;;;;;;;0.00;0.00;;;;;;;4.69;100.00;95193.06;1014900;29;20080;-78
2023/12/10 01:34:06;;;;;;;0.25;0.25;;;;;;;4.66;100.00;95188.31;1015065;29;20020;-78
2023/12/10 01:34:37;;;;;;;0.10;0.10;;;;;;;4.60;100.00;95190.09;1022733;29;20096;-78
2023/12/10 01:35:08;;;;;;;0.00;0.00;;;;;;;4.58;100.00;95186.16;1015017;29;20039;-78
2023/12/10 01:35:38;;;;;;;0.00;0.00;;;;;;;4.64;100.00;95195.59;1022998;29;20082;-78
2023/12/10 01:36:19;;;;;;;0.00;0.00;;;;;;;4.62;100.00;95202.81;1018628;29;20055;-77
2023/12/10 01:36:50;;;;;;;0.00;0.00;;;;;;;4.60;100.00;95207.50;1022900;29;20027;-78
2023/12/10 01:37:20;;;;;;;0.00;0.00;;;;;;;4.66;100.00;95204.72;1022856;29;20274;-78
2023/12/10 01:37:51;;;;;;;0.25;0.25;;;;;;;4.55;100.00;95186.63;1022837;28;20077;-78
2023/12/10 01:38:21;;;;;;;0.00;0.00;;;;;;;4.68;100.00;95209.69;1022806;29;20026;-77
2023/12/10 01:38:52;;;;;;;0.00;0.00;;;;;;;4.60;100.00;95204.91;1022711;29;20054;-78
2023/12/10 01:39:23;;;;;;;0.00;0.00;;;;;;;4.61;100.00;95206.47;1018798;29;20094;-78
2023/12/10 01:39:53;;;;;;;0.00;0.00;;;;;;;4.63;100.00;95210.41;1025629;28;20031;-78
2023/12/10 01:40:23;;;;;;;0.00;0.00;;;;;;;4.44;100.00;95170.09;1022757;29;20031;-77
2023/12/10 01:40:54;;;;;;;0.17;0.17;;;;;;;4.57;100.00;95200.16;1018664;29;20039;-77
2023/12/10 01:41:25;;;;;;;0.13;0.13;;;;;;;4.59;100.00;95208.50;1015112;29;20475;-78
2023/12/10 01:41:56;;;;;;;0.30;0.30;;;;;;;4.56;100.00;95195.97;1018788;29;20035;-78
2023/12/10 01:42:26;;;;;;;0.00;0.00;;;;;;;4.56;100.00;95204.59;1018709;29;20278;-78
2023/12/10 01:42:57;;;;;;;0.00;0.00;;;;;;;4.54;100.00;95203.25;1018968;29;20027;-78
2023/12/10 01:43:28;;;;;;;0.20;0.20;;;;;;;4.52;100.00;95197.47;1015029;29;20036;-78
2023/12/10 01:43:59;;;;;;;0.00;0.00;;;;;;;4.51;100.00;95195.91;1018931;29;20027;-78
2023/12/10 01:44:30;;;;;;;0.35;0.35;;;;;;;4.53;100.00;95210.25;1022626;29;20766;-78
2023/12/10 01:45:03;;;;;;;0.17;0.17;;;;;;;4.58;100.00;95212.91;1014782;29;20412;-78
2023/12/10 01:45:34;;;;;;;0.00;0.00;;;;;;;4.55;100.00;95199.59;1010881;29;20549;-78
2023/12/10 01:46:05;;;;;;;0.00;0.00;;;;;;;4.62;100.00;95219.19;1014819;29;20275;-75
2023/12/10 01:46:35;;;;;;;0.00;0.00;;;;;;;4.64;100.00;95221.56;1015776;29;20056;-77
2023/12/10 01:47:07;;;;;;;0.00;0.00;;;;;;;4.59;100.00;95213.69;1019249;29;20036;-78
2023/12/10 01:47:43;;;;;;;0.00;0.00;;;;;;;4.63;100.00;95220.78;1014581;29;20031;-78
2023/12/10 01:48:14;;;;;;;0.00;0.00;;;;;;;4.59;100.00;95226.69;1016596;29;20791;-78
2023/12/10 01:48:44;;;;;;;0.00;0.00;;;;;;;4.62;100.00;95216.59;1018737;29;20365;-77
2023/12/10 01:49:15;;;;;;;0.00;0.00;;;;;;;4.64;100.00;95216.38;1019048;29;20028;-77
2023/12/10 01:49:46;;;;;;;0.00;0.00;;;;;;;4.68;100.00;95217.47;1018559;29;20504;-77
2023/12/10 01:50:18;;;;;;;0.00;0.00;;;;;;;4.58;100.00;95207.72;1014716;29;20308;-78
2023/12/10 01:50:49;;;;;;;0.00;0.00;;;;;;;4.61;100.00;95209.06;1018917;29;20047;-78
2023/12/10 01:51:19;;;;;;;0.00;0.00;;;;;;;4.48;100.00;95197.94;1022609;29;20263;-78
2023/12/10 01:51:50;;;;;;;0.00;0.00;;;;;;;4.44;100.00;95199.47;1018284;29;20083;-78
2023/12/10 01:52:22;;;;;;;0.00;0.00;;;;;;;4.54;100.00;95211.03;1010650;29;20055;-77
2023/12/10 01:52:52;;;;;;;0.00;0.00;;;;;;;4.62;100.00;95211.41;1014675;29;20028;-77
2023/12/10 01:53:23;;;;;;;0.00;0.00;;;;;;;4.59;100.00;95213.69;1020830;28;20302;-77
2023/12/10 01:53:54;;;;;;;0.00;0.00;;;;;;;4.55;100.00;95207.41;1026626;28;20077;-77
2023/12/10 01:54:24;;;;;;;0.00;0.00;;;;;;;4.59;100.00;95205.91;1018762;29;20786;-77
2023/12/10 01:54:55;;;;;;;0.00;0.00;;;;;;;4.65;100.00;95215.34;1018836;29;20027;-77
2023/12/10 01:55:25;;;;;;;0.00;0.00;;;;;;;4.61;100.00;95216.84;1018873;28;20027;-77
2023/12/10 01:55:56;;;;;;;0.00;0.00;;;;;;;4.58;100.00;95207.72;1014869;29;20111;-78
2023/12/10 01:56:28;;;;;;;0.00;0.00;;;;;;;4.56;100.00;95214.97;1022848;29;20066;-79
2023/12/10 01:56:58;;;;;;;0.00;0.00;;;;;;;4.48;100.00;95208.34;1022216;29;20015;-79
2023/12/10 01:57:35;;;;;;;0.00;0.00;;;;;;;4.46;100.00;95209.59;1023002;29;20291;-78
2023/12/10 01:58:05;;;;;;;0.00;0.00;;;;;;;4.59;100.00;95224.88;1014735;29;20617;-77
2023/12/10 01:58:36;;;;;;;0.00;0.00;;;;;;;4.51;100.00;95211.50;1015850;29;20323;-78
2023/12/10 01:59:06;;;;;;;0.05;0.05;;;;;;;4.46;100.00;95223.41;1023880;28;20446;-78
2023/12/10 01:59:36;;;;;;;0.65;0.65;;;;;;;4.48;100.00;95210.16;1014780;29;20122;-78
2023/12/10 02:00:08;;;;;;;0.00;0.00;;;;;;;4.54;100.00;95226.63;1019060;29;20027;-78
2023/12/10 02:00:38;;;;;;;0.10;0.10;;;;;;;4.60;100.00;95225.69;1016766;29;20404;-78
2023/12/10 02:01:09;;;;;;;0.00;0.00;;;;;;;4.47;100.00;95227.56;1014751;29;20268;-79
2023/12/10 02:01:39;;;;;;;0.00;0.00;;;;;;;4.51;100.00;95222.69;1015228;29;20132;-78
2023/12/10 02:02:12;;;;;;;0.00;0.00;;;;;;;4.55;100.00;95234.16;1007010;29;20104;-79
2023/12/10 02:02:44;;;;;;;0.10;0.10;;;;;;;4.44;100.00;95227.25;1018829;29;20032;-77
2023/12/10 02:03:14;;;;;;;0.00;0.00;;;;;;;4.51;100.00;95224.50;1019142;29;20268;-78
2023/12/10 02:03:45;;;;;;;0.00;0.00;;;;;;;4.53;100.00;95251.00;1015181;29;20670;-78
2023/12/10 02:04:16;;;;;;;0.10;0.10;;;;;;;4.44;100.00;95238.41;1018857;29;20027;-78
2023/12/10 02:04:46;;;;;;;0.00;0.00;;;;;;;4.35;100.00;95229.44;1020915;29;20069;-78
2023/12/10 02:05:17;;;;;;;0.00;0.00;;;;;;;4.45;100.00;95245.19;1022974;29;20039;-78
2023/12/10 02:05:47;;;;;;;0.00;0.00;;;;;;;4.31;100.00;95236.13;1018789;29;20020;-78
2023/12/10 02:06:18;;;;;;;0.85;0.63;;;;;;;4.56;100.00;95255.72;1022652;29;20035;-78
2023/12/10 02:06:48;;;;;;;0.03;0.03;;;;;;;4.51;100.00;95247.88;1022777;29;20062;-77
2023/12/10 02:07:22;;;;;;;0.00;0.00;;;;;;;4.47;100.00;95252.75;1019861;28;20016;-79
2023/12/10 02:07:53;;;;;;;0.00;0.00;;;;;;;4.47;100.00;95250.94;1011075;29;20100;-78
2023/12/10 02:08:23;;;;;;;0.00;0.00;;;;;;;4.54;100.00;95250.00;1018819;29;20326;-77
2023/12/10 02:08:54;;;;;;;0.00;0.00;;;;;;;4.55;100.00;95261.97;1018824;29;20031;-78
2023/12/10 02:09:24;;;;;;;0.20;0.20;;;;;;;4.52;100.00;95260.63;1018711;29;20042;-78
2023/12/10 02:09:55;;;;;;;0.00;0.00;;;;;;;4.35;100.00;95245.03;1021594;29;20019;-78
2023/12/10 02:10:26;;;;;;;0.08;0.08;;;;;;;4.54;100.00;95268.19;1014321;29;20119;-78
2023/12/10 02:10:56;;;;;;;0.00;0.00;;;;;;;4.54;100.00;95260.41;1021157;29;20870;-78
2023/12/10 02:11:27;;;;;;;0.00;0.00;;;;;;;4.59;100.00;95278.66;1018464;29;20086;-77
2023/12/10 02:11:58;;;;;;;1.35;0.40;;;;;;;4.48;100.00;95265.50;1014926;29;20036;-78
2023/12/10 02:12:29;;;;;;;0.00;0.00;;;;;;;4.58;100.00;95277.06;1015647;29;20307;-78
2023/12/10 02:12:59;;;;;;;5.03;0.70;;;;;;;4.58;100.00;95274.47;1010909;29;20024;-77
2023/12/10 02:13:30;;;;;;;0.90;0.90;;;;;;;4.61;100.00;95268.81;1018639;29;20039;-78
2023/12/10 02:14:01;;;;;;;0.10;0.10;;;;;;;4.61;100.00;95284.41;1018524;29;20027;-78
2023/12/10 02:14:31;;;;;;;0.00;0.00;;;;;;;4.50;100.00;95267.88;1014443;29;20703;-78
2023/12/10 02:15:20;;;;;;;0.22;0.22;;;;;;;4.60;100.00;95285.44;1014967;29;20016;-78
2023/12/10 02:15:50;;;;;;;0.00;0.00;;;;;;;4.61;100.00;95285.19;1024762;28;20028;-78
2023/12/10 02:16:21;;;;;;;0.00;0.00;;;;;;;4.43;100.00;95259.44;1025897;28;20279;-78
2023/12/10 02:16:51;;;;;;;0.00;0.00;;;;;;;4.55;100.00;95280.16;1023527;29;20063;-77
2023/12/10 02:17:22;;;;;;;0.00;0.00;;;;;;;4.51;100.00;95285.03;1022901;28;20050;-78
2023/12/10 02:17:52;;;;;;;1.67;1.15;;;;;;;4.48;100.00;95291.47;1015112;29;20027;-78
2023/12/10 02:18:23;;;;;;;0.10;0.10;;;;;;;4.45;100.00;95285.97;1018485;29;20031;-76
2023/12/10 02:18:53;;;;;;;0.57;0.52;;;;;;;4.41;100.00;95290.84;1026031;28;20051;-78
2023/12/10 02:19:24;;;;;;;0.00;0.00;;;;;;;4.48;100.00;95286.28;1026487;28;20052;-78
2023/12/10 02:19:54;;;;;;;0.00;0.00;;;;;;;4.52;100.00;95293.59;1029916;28;20482;-77
2023/12/10 02:20:24;;;;;;;0.00;0.00;;;;;;;4.53;100.00;95297.78;1026309;28;20035;-78
2023/12/10 02:20:55;;;;;;;0.00;0.00;;;;;;;4.44;100.00;95282.59;1026481;28;20027;-78
2023/12/10 02:21:26;;;;;;;0.00;0.00;;;;;;;4.51;100.00;95299.84;1022388;29;20035;-78
2023/12/10 02:21:56;;;;;;;0.30;0.25;;;;;;;4.47;100.00;95300.28;1018706;29;20376;-78
2023/12/10 02:22:27;;;;;;;0.32;0.32;;;;;;;4.47;100.00;95294.31;1021334;29;20106;-78
2023/12/10 02:23:04;;;;;;;0.00;0.00;;;;;;;4.56;100.00;95299.91;1021757;28;20535;-78
2023/12/10 02:23:51;;;;;;;0.30;0.30;;;;;;;4.52;100.00;95293.59;1011687;29;20032;-79
2023/12/10 02:24:24;;;;;;;0.00;0.00;;;;;;;4.49;100.00;95297.44;1014724;29;20274;-78
2023/12/10 02:24:57;;;;;;;0.00;0.00;;;;;;;4.54;100.00;95299.38;1018827;29;20278;-77
2023/12/10 02:25:45;;;;;;;0.00;0.00;;;;;;;4.56;100.00;95305.09;1018715;29;20264;-78
2023/12/10 02:26:16;;;;;;;0.03;0.03;;;;;;;4.48;100.00;95296.66;1026508;28;20807;-78